Time;durP1;ratioP1;P1;durP2;ratioP2;P2;SDS_P1;SDS_P2;PMS_P1;PMS_P2;Temp;Humidity;BMP_temperature;BMP_pressure;BME280_temperature;BME280_humidity;BME280_pressure;Samples;Min_cycle;Max_cycle;Signal;HPM_P1;HPM_P2
2022/07/28 00:02:17;;;;;;;8.43;6.72;;;;;;;27.36;52.89;94536.22;5049827;28;20234;-84
2022/07/28 00:04:44;;;;;;;7.55;6.25;;;;;;;26.96;52.72;94476.91;5050081;28;20187;-83
2022/07/28 00:07:11;;;;;;;7.40;6.65;;;;;;;27.34;52.57;94529.63;5049771;28;20187;-83
2022/07/28 00:09:40;;;;;;;6.18;5.57;;;;;;;27.30;53.21;94534.56;5049777;28;20264;-83
2022/07/28 00:12:07;;;;;;;7.13;6.43;;;;;;;27.13;53.47;94524.13;5053253;28;20222;-83
2022/07/28 00:14:34;;;;;;;11.85;6.72;;;;;;;27.00;54.57;94522.66;5053682;28;20663;-82
2022/07/28 00:17:01;;;;;;;10.65;6.57;;;;;;;27.21;56.69;94576.22;5053997;28;20194;-81
2022/07/28 00:19:28;;;;;;;7.47;6.20;;;;;;;26.86;57.55;94547.66;5053826;28;20295;-81
2022/07/28 00:21:55;;;;;;;10.15;7.88;;;;;;;25.84;60.07;94409.84;5054443;28;20655;-83
2022/07/28 00:24:23;;;;;;;8.65;6.10;;;;;;;26.90;58.23;94569.78;5053688;28;20191;-83
2022/07/28 00:26:51;;;;;;;13.07;8.18;;;;;;;26.48;60.44;94493.38;5053972;28;20191;-82
2022/07/28 00:29:18;;;;;;;11.20;7.55;;;;;;;26.70;62.11;94523.03;5053662;28;20202;-82
2022/07/28 00:31:45;;;;;;;11.80;7.00;;;;;;;26.55;62.46;94527.28;5053943;28;20221;-82
2022/07/28 00:34:12;;;;;;;12.88;7.28;;;;;;;26.49;62.64;94527.22;5054159;28;20188;-82
2022/07/28 00:36:39;;;;;;;13.40;7.38;;;;;;;26.42;63.69;94521.31;5053769;28;20200;-82
2022/07/28 00:39:05;;;;;;;9.40;7.07;;;;;;;26.37;64.38;94515.19;5053736;28;20199;-83
2022/07/28 00:41:32;;;;;;;9.43;6.90;;;;;;;26.35;64.19;94520.69;5053313;28;20293;-82
2022/07/28 00:44:01;;;;;;;10.32;7.55;;;;;;;26.23;66.20;94515.53;5053291;28;20187;-82
2022/07/28 00:46:27;;;;;;;9.43;7.43;;;;;;;26.12;68.06;94515.59;5053510;28;20179;-84
2022/07/28 00:48:55;;;;;;;15.00;7.80;;;;;;;26.16;68.57;94553.41;5053527;28;20650;-84
2022/07/28 00:51:24;;;;;;;10.82;7.93;;;;;;;26.01;68.32;94541.66;5053066;28;20585;-83
2022/07/28 00:53:51;;;;;;;10.43;8.18;;;;;;;25.72;69.23;94512.06;5053383;28;20197;-84
2022/07/28 00:56:19;;;;;;;12.30;7.78;;;;;;;25.98;69.36;94560.47;5053027;28;20202;-83
2022/07/28 00:58:47;;;;;;;8.05;7.00;;;;;;;25.93;70.32;94567.47;5053094;28;20191;-82
2022/07/28 01:01:18;;;;;;;8.43;7.57;;;;;;;25.89;70.87;94575.00;5052705;28;20191;-82
2022/07/28 01:03:48;;;;;;;11.60;8.10;;;;;;;24.70;71.89;94402.88;5053015;28;20658;-82
2022/07/28 01:06:29;;;;;;;8.30;7.22;;;;;;;25.44;71.29;94525.19;5052801;28;20813;-83
2022/07/28 01:09:06;;;;;;;8.27;7.47;;;;;;;25.70;69.96;94574.38;5052978;28;20191;-83
2022/07/28 01:11:43;;;;;;;8.35;7.32;;;;;;;25.65;71.18;94592.63;5052603;28;20240;-83
2022/07/28 01:14:16;;;;;;;9.10;7.05;;;;;;;25.62;72.93;94608.00;5053707;28;20191;-82
2022/07/28 01:16:49;;;;;;;8.20;7.10;;;;;;;25.56;73.55;94594.03;5052942;28;20195;-84
2022/07/28 01:19:32;;;;;;;11.25;8.77;;;;;;;24.69;73.82;94464.03;5052591;28;20226;-83
2022/07/28 01:22:01;;;;;;;7.95;6.90;;;;;;;25.45;73.41;94574.69;5052114;28;20203;-81
2022/07/28 01:24:39;;;;;;;8.18;7.38;;;;;;;25.19;74.35;94534.13;5052427;28;20218;-82
2022/07/28 01:27:10;;;;;;;9.13;7.97;;;;;;;25.03;74.38;94509.44;5052637;28;20661;-81
2022/07/28 01:29:57;;;;;;;8.73;7.82;;;;;;;25.30;75.44;94563.91;5052334;28;20202;-83
2022/07/28 01:32:28;;;;;;;9.25;7.82;;;;;;;25.28;75.41;94553.69;5052188;28;20744;-83
2022/07/28 01:35:00;;;;;;;10.57;8.23;;;;;;;25.26;76.09;94550.53;5052300;28;20642;-83
2022/07/28 01:37:30;;;;;;;8.80;7.95;;;;;;;25.25;76.23;94550.72;5052521;28;20187;-83
2022/07/28 01:40:07;;;;;;;9.65;8.00;;;;;;;24.97;76.53;94515.63;5052476;28;20187;-82
2022/07/28 01:42:38;;;;;;;10.30;8.07;;;;;;;25.17;76.24;94551.09;5052548;28;20193;-81
2022/07/28 01:45:07;;;;;;;8.48;7.55;;;;;;;25.14;77.14;94547.13;5052209;28;20601;-83
2022/07/28 01:47:37;;;;;;;8.50;7.38;;;;;;;24.35;76.84;94430.88;5052087;28;20639;-83
2022/07/28 01:50:08;;;;;;;8.25;7.45;;;;;;;25.10;77.03;94543.38;5052005;28;20191;-82
2022/07/28 01:52:37;;;;;;;9.32;8.07;;;;;;;24.83;76.22;94510.84;5052184;28;20233;-83
2022/07/28 01:55:06;;;;;;;8.65;7.60;;;;;;;24.27;76.35;94435.44;5052091;28;20283;-82
2022/07/28 01:57:34;;;;;;;8.85;7.95;;;;;;;24.21;76.66;94417.25;5052284;28;20206;-83
2022/07/28 02:00:02;;;;;;;8.50;7.60;;;;;;;25.03;76.31;94540.84;5052040;28;20183;-83
2022/07/28 02:02:31;;;;;;;8.90;8.07;;;;;;;25.00;75.98;94538.72;5051992;28;20293;-81
2022/07/28 02:05:01;;;;;;;8.55;7.72;;;;;;;23.76;76.11;94365.59;5052131;28;20194;-83
2022/07/28 02:07:30;;;;;;;8.82;7.35;;;;;;;24.65;75.99;94515.22;5051887;28;20198;-81
2022/07/28 02:09:58;;;;;;;8.05;7.25;;;;;;;24.59;76.37;94505.69;5051987;28;20589;-83
2022/07/28 02:12:27;;;;;;;9.25;7.93;;;;;;;23.77;74.77;94390.69;5051630;28;20246;-82
2022/07/28 02:14:56;;;;;;;8.60;7.28;;;;;;;24.61;75.41;94523.75;5051428;28;20187;-82
2022/07/28 02:17:27;;;;;;;9.32;7.75;;;;;;;23.82;75.49;94408.28;5051955;28;20198;-82
2022/07/28 02:19:57;;;;;;;9.73;8.15;;;;;;;24.64;74.94;94536.38;5051260;28;20748;-81
2022/07/28 02:22:27;;;;;;;10.85;8.75;;;;;;;24.78;74.68;94563.88;5051720;28;20293;-81
2022/07/28 02:24:59;;;;;;;13.50;9.15;;;;;;;24.72;74.32;94560.34;5052098;28;20183;-82
2022/07/28 02:27:35;;;;;;;10.35;9.25;;;;;;;24.65;74.81;94567.50;5051729;28;20298;-82
2022/07/28 02:30:07;;;;;;;11.02;9.65;;;;;;;24.63;74.78;94550.47;5052828;28;20195;-83
2022/07/28 02:32:41;;;;;;;10.18;9.18;;;;;;;24.61;74.98;94552.50;5053705;28;20218;-83
2022/07/28 02:35:11;;;;;;;13.65;8.82;;;;;;;23.54;74.86;94396.66;5053642;28;20624;-82
2022/07/28 02:37:44;;;;;;;10.40;9.20;;;;;;;24.40;75.56;94539.00;5053530;28;20651;-83
2022/07/28 02:40:15;;;;;;;10.55;8.52;;;;;;;24.52;75.95;94562.50;5053312;28;20197;-83
2022/07/28 02:42:47;;;;;;;9.65;8.75;;;;;;;23.94;76.70;94475.19;5059865;28;20198;-82
2022/07/28 02:45:15;;;;;;;8.73;7.88;;;;;;;24.46;75.54;94566.03;5075238;28;20187;-83
2022/07/28 02:47:47;;;;;;;10.15;8.75;;;;;;;23.35;75.14;94401.16;5075218;28;20244;-82
2022/07/28 02:50:16;;;;;;;9.35;8.07;;;;;;;23.77;76.57;94469.81;5068545;28;20685;-83
2022/07/28 02:52:46;;;;;;;10.80;8.10;;;;;;;24.40;77.05;94565.13;5052169;28;20218;-82
2022/07/28 02:55:16;;;;;;;10.10;8.15;;;;;;;24.03;77.19;94514.84;5052190;28;20191;-83
2022/07/28 02:57:46;;;;;;;11.25;7.82;;;;;;;24.39;77.62;94573.97;5051260;28;20209;-82
2022/07/28 03:00:14;;;;;;;11.23;8.15;;;;;;;24.36;78.24;94574.44;5051329;28;20198;-83
2022/07/28 03:02:56;;;;;;;10.15;9.15;;;;;;;24.09;78.92;94529.59;5051644;28;20278;-83
2022/07/28 03:05:23;;;;;;;9.85;8.85;;;;;;;24.21;79.42;94553.16;5053001;28;20201;-84
2022/07/28 03:07:52;;;;;;;9.32;8.52;;;;;;;24.26;79.87;94556.66;5053311;28;20195;-83
2022/07/28 03:10:21;;;;;;;9.68;7.88;;;;;;;24.34;80.08;94567.81;5065190;28;20195;-81
2022/07/28 03:12:48;;;;;;;10.02;8.98;;;;;;;24.38;79.36;94569.00;5076093;28;20199;-83
2022/07/28 03:15:15;;;;;;;10.07;8.68;;;;;;;24.01;79.45;94509.84;5073643;28;20197;-81
2022/07/28 03:17:42;;;;;;;10.45;9.35;;;;;;;24.10;79.57;94514.75;5065953;28;20269;-81
2022/07/28 03:20:11;;;;;;;9.75;8.48;;;;;;;23.46;77.70;94402.22;5060177;28;20199;-83
2022/07/28 03:22:38;;;;;;;13.63;8.80;;;;;;;24.53;77.00;94566.75;5055468;28;20657;-81
2022/07/28 03:25:16;;;;;;;10.15;8.65;;;;;;;24.15;77.21;94497.38;5053188;28;20225;-82
2022/07/28 03:27:46;;;;;;;13.38;8.82;;;;;;;24.32;77.36;94530.66;5055968;28;20216;-81
2022/07/28 03:30:15;;;;;;;9.20;8.23;;;;;;;24.58;75.96;94542.53;5050568;28;20202;-83
2022/07/28 03:32:46;;;;;;;10.15;8.60;;;;;;;24.21;75.75;94479.97;5051263;28;20207;-82
2022/07/28 03:35:14;;;;;;;10.88;8.20;;;;;;;24.67;75.81;94539.31;5051076;28;20213;-84
2022/07/28 03:37:49;;;;;;;9.05;8.18;;;;;;;24.77;75.15;94546.59;5051201;28;20183;-82
2022/07/28 03:40:20;;;;;;;9.18;8.13;;;;;;;24.10;75.16;94431.13;5050325;28;20190;-81
2022/07/28 03:42:49;;;;;;;10.48;9.27;;;;;;;24.76;75.27;94530.09;5050966;28;20187;-82
2022/07/28 03:45:17;;;;;;;9.23;8.35;;;;;;;24.76;74.64;94539.78;5050338;28;20203;-82
2022/07/28 03:47:54;;;;;;;11.15;8.95;;;;;;;24.43;74.43;94494.09;5051759;28;20322;-82
2022/07/28 03:50:25;;;;;;;9.23;8.38;;;;;;;24.35;75.16;94477.91;5055646;28;20558;-82
2022/07/28 03:52:52;;;;;;;9.55;8.68;;;;;;;24.65;75.00;94520.44;5066900;28;20206;-81
2022/07/28 03:55:21;;;;;;;9.70;8.52;;;;;;;24.69;74.02;94511.09;5065739;28;20194;-82
2022/07/28 03:57:48;;;;;;;10.57;8.68;;;;;;;24.01;73.38;94383.66;5064143;28;20191;-82
2022/07/28 04:00:16;;;;;;;8.90;7.68;;;;;;;24.80;72.19;94483.34;5059552;28;20195;-83
2022/07/28 04:02:43;;;;;;;9.70;8.80;;;;;;;24.80;72.53;94493.03;5062312;28;20198;-84
2022/07/28 04:05:12;;;;;;;8.80;7.93;;;;;;;24.71;72.73;94489.97;5064276;28;20199;-82
2022/07/28 04:07:43;;;;;;;13.05;9.00;;;;;;;24.67;73.31;94497.47;5059495;28;20184;-84
2022/07/28 04:10:11;;;;;;;10.63;8.00;;;;;;;23.64;73.68;94364.78;5060820;28;20194;-84
2022/07/28 04:12:48;;;;;;;10.27;8.40;;;;;;;23.56;73.70;94355.47;5058337;28;20297;-83
2022/07/28 04:15:15;;;;;;;11.02;8.82;;;;;;;24.42;74.23;94510.00;5051374;28;20229;-81
2022/07/28 04:17:43;;;;;;;11.60;9.93;;;;;;;24.34;75.79;94515.53;5051965;28;20195;-80
2022/07/28 04:20:11;;;;;;;10.63;9.52;;;;;;;24.35;76.76;94504.06;5053125;28;20183;-82
2022/07/28 04:22:38;;;;;;;12.60;9.40;;;;;;;24.20;79.46;94501.91;5050726;28;20199;-83
2022/07/28 04:25:06;;;;;;;13.43;10.23;;;;;;;24.17;79.66;94515.41;5050620;28;20195;-82
2022/07/28 04:27:35;;;;;;;10.88;9.88;;;;;;;23.94;79.58;94501.31;5050284;28;20688;-83
2022/07/28 04:30:04;;;;;;;10.98;9.88;;;;;;;23.77;80.76;94498.56;5050310;28;20198;-83
2022/07/28 04:32:31;;;;;;;12.40;9.23;;;;;;;24.13;81.02;94563.91;5049978;28;20294;-82
2022/07/28 04:34:58;;;;;;;10.50;9.48;;;;;;;23.91;80.71;94537.53;5049977;28;20685;-82
2022/07/28 04:37:26;;;;;;;9.48;8.50;;;;;;;24.12;80.16;94589.25;5049586;28;20191;-82
2022/07/28 04:39:53;;;;;;;10.93;9.32;;;;;;;24.09;79.79;94592.31;5049823;28;20269;-81
2022/07/28 04:42:20;;;;;;;10.32;8.80;;;;;;;24.09;79.25;94579.25;5049662;28;20297;-83
2022/07/28 04:44:47;;;;;;;10.13;9.13;;;;;;;24.02;79.06;94578.56;5049795;28;20686;-82
2022/07/28 04:47:15;;;;;;;11.05;9.55;;;;;;;24.02;79.02;94570.72;5049344;28;20237;-83
2022/07/28 04:49:42;;;;;;;9.88;8.90;;;;;;;24.00;79.08;94585.81;5049685;28;20681;-81
2022/07/28 04:52:09;;;;;;;10.13;8.90;;;;;;;24.00;79.14;94593.66;5049614;28;20191;-82
2022/07/28 04:54:37;;;;;;;10.50;9.32;;;;;;;23.65;80.38;94559.59;5049824;28;20736;-83
2022/07/28 04:57:04;;;;;;;11.05;9.75;;;;;;;23.82;80.71;94584.06;5051616;28;20199;-81
2022/07/28 04:59:31;;;;;;;10.07;9.13;;;;;;;23.73;81.38;94565.31;5054254;28;20199;-82
2022/07/28 05:01:58;;;;;;;9.25;8.45;;;;;;;23.80;81.29;94561.81;5053535;28;20202;-82
2022/07/28 05:04:27;;;;;;;10.60;9.60;;;;;;;23.93;81.99;94580.72;5053600;28;20197;-81
2022/07/28 05:06:54;;;;;;;11.45;10.10;;;;;;;23.46;81.95;94489.16;5053402;28;20677;-83
2022/07/28 05:09:21;;;;;;;12.30;8.70;;;;;;;23.71;81.08;94541.25;5052982;28;20202;-82
2022/07/28 05:11:48;;;;;;;11.98;10.70;;;;;;;23.94;81.09;94571.84;5053551;28;20195;-82
2022/07/28 05:14:15;;;;;;;11.13;10.13;;;;;;;23.93;81.49;94579.91;5052926;28;20226;-83
2022/07/28 05:16:41;;;;;;;11.25;10.15;;;;;;;23.87;81.71;94572.94;5052962;28;20700;-82
2022/07/28 05:19:08;;;;;;;11.50;10.35;;;;;;;23.94;81.04;94589.34;5052624;28;20227;-84
2022/07/28 05:21:38;;;;;;;10.88;9.65;;;;;;;23.93;81.24;94592.97;5052633;28;20189;-82
2022/07/28 05:24:06;;;;;;;11.52;10.40;;;;;;;23.74;80.78;94560.88;5052826;28;20246;-84
2022/07/28 05:26:32;;;;;;;10.07;9.07;;;;;;;23.71;81.21;94564.75;5052865;28;20615;-83
2022/07/28 05:28:59;;;;;;;12.35;10.10;;;;;;;23.64;81.93;94558.78;5052570;28;20569;-84
2022/07/28 05:31:26;;;;;;;11.98;9.73;;;;;;;23.95;82.17;94614.44;5052772;28;20199;-82
2022/07/28 05:33:53;;;;;;;11.23;10.02;;;;;;;23.94;82.14;94605.00;5052370;28;20242;-82
2022/07/28 05:36:20;;;;;;;10.65;9.40;;;;;;;23.74;82.52;94566.09;5052996;28;20198;-84
2022/07/28 05:38:48;;;;;;;10.63;9.63;;;;;;;23.96;82.88;94592.50;5052546;28;20658;-82
2022/07/28 05:41:15;;;;;;;10.23;9.23;;;;;;;23.64;82.44;94548.34;5052564;28;20214;-82
2022/07/28 05:43:42;;;;;;;10.60;9.70;;;;;;;24.00;81.78;94604.09;5051508;28;20700;-82
2022/07/28 05:46:09;;;;;;;13.98;10.43;;;;;;;24.02;81.61;94605.50;5050594;28;20206;-82
2022/07/28 05:48:37;;;;;;;10.85;9.85;;;;;;;24.02;81.50;94597.66;5051006;28;20191;-83
2022/07/28 05:51:05;;;;;;;13.05;9.55;;;;;;;23.78;81.96;94557.59;5052055;28;20221;-82
2022/07/28 05:53:32;;;;;;;11.02;9.98;;;;;;;23.85;81.65;94548.88;5051672;28;20215;-81
2022/07/28 05:56:00;;;;;;;10.90;9.80;;;;;;;24.14;82.63;94594.28;5054009;28;20202;-82
2022/07/28 05:58:27;;;;;;;10.35;9.30;;;;;;;24.15;81.81;94583.59;5053810;28;20213;-81
2022/07/28 06:00:54;;;;;;;10.82;9.82;;;;;;;24.20;81.08;94583.72;5050813;28;20214;-81
2022/07/28 06:03:21;;;;;;;11.00;9.90;;;;;;;24.21;79.24;94584.50;5050982;28;20206;-82
2022/07/28 06:05:49;;;;;;;13.50;12.02;;;;;;;23.88;78.72;94528.34;5050870;28;20183;-83
2022/07/28 06:08:17;;;;;;;10.95;9.82;;;;;;;23.92;78.50;94529.50;5050789;28;20211;-81
2022/07/28 06:11:00;;;;;;;12.30;11.05;;;;;;;24.28;79.74;94588.63;5050990;28;20281;-81
2022/07/28 06:13:29;;;;;;;11.25;10.15;;;;;;;24.32;79.62;94581.13;5050799;28;20222;-81
2022/07/28 06:15:57;;;;;;;13.48;10.80;;;;;;;24.33;79.39;94579.31;5049730;28;20673;-82
2022/07/28 06:18:24;;;;;;;10.82;9.80;;;;;;;24.38;79.17;94582.06;5050272;28;20780;-83
2022/07/28 06:20:51;;;;;;;12.48;10.40;;;;;;;24.43;79.17;94577.75;5050667;28;20209;-83
2022/07/28 06:23:22;;;;;;;11.25;9.88;;;;;;;24.46;79.56;94574.69;5051307;28;20199;-82
2022/07/28 06:25:50;;;;;;;11.18;10.18;;;;;;;24.51;79.51;94572.19;5050673;28;20274;-81
2022/07/28 06:28:18;;;;;;;11.63;10.45;;;;;;;24.54;79.70;94586.63;5050684;28;20216;-83
2022/07/28 06:30:47;;;;;;;14.90;10.32;;;;;;;24.60;79.83;94608.44;5050882;28;20260;-83
2022/07/28 06:33:14;;;;;;;12.05;10.68;;;;;;;24.63;79.58;94597.53;5053098;28;20205;-83
2022/07/28 06:35:41;;;;;;;11.40;10.23;;;;;;;24.65;79.42;94590.25;5050656;28;20190;-83
2022/07/28 06:38:08;;;;;;;11.80;10.15;;;;;;;24.06;78.91;94493.50;5050115;28;20195;-81
2022/07/28 06:40:36;;;;;;;11.90;9.85;;;;;;;23.16;76.05;94357.91;5047682;28;20705;-82
2022/07/28 06:43:05;;;;;;;11.50;10.32;;;;;;;23.96;75.74;94461.91;5049975;28;20695;-80
2022/07/28 06:45:32;;;;;;;11.15;9.80;;;;;;;24.66;75.78;94557.88;5047364;28;20686;-83
2022/07/28 06:48:01;;;;;;;11.63;10.52;;;;;;;24.86;75.21;94591.50;5049826;28;20662;-83
2022/07/28 06:50:28;;;;;;;11.73;10.57;;;;;;;24.89;74.95;94593.66;5050203;28;20194;-82
2022/07/28 06:52:55;;;;;;;11.90;10.80;;;;;;;24.94;73.52;94580.69;5049823;28;20201;-85
2022/07/28 06:55:22;;;;;;;11.88;10.68;;;;;;;24.95;73.05;94583.06;5049687;28;20218;-84
2022/07/28 06:57:49;;;;;;;11.60;10.13;;;;;;;25.10;75.46;94585.25;5050109;28;20194;-82
2022/07/28 07:00:16;;;;;;;10.68;9.57;;;;;;;25.15;75.08;94598.44;5051471;28;20670;-81
2022/07/28 07:02:44;;;;;;;12.25;11.02;;;;;;;25.22;73.74;94593.88;5050074;28;20210;-82
2022/07/28 07:05:12;;;;;;;10.90;9.80;;;;;;;25.30;73.33;94587.47;5049671;28;20194;-83
2022/07/28 07:07:39;;;;;;;12.38;10.82;;;;;;;25.35;73.10;94589.44;5050150;28;20270;-82
2022/07/28 07:10:07;;;;;;;11.70;10.55;;;;;;;25.41;72.42;94591.91;5049850;28;20191;-82
2022/07/28 07:12:34;;;;;;;12.57;11.27;;;;;;;25.46;72.08;94597.22;5050271;28;20198;-85
2022/07/28 07:15:02;;;;;;;14.25;10.73;;;;;;;24.50;71.88;94437.25;5049481;28;20211;-82
2022/07/28 07:17:28;;;;;;;11.68;10.57;;;;;;;25.60;72.09;94599.56;5049912;28;20198;-83
2022/07/28 07:19:55;;;;;;;12.00;10.55;;;;;;;25.05;71.98;94495.38;5049505;28;20223;-82
2022/07/28 07:22:24;;;;;;;12.10;10.80;;;;;;;25.70;71.90;94589.31;5050029;28;20256;-84
2022/07/28 07:24:53;;;;;;;13.93;11.68;;;;;;;25.27;71.03;94520.69;5049750;28;20621;-83
2022/07/28 07:27:20;;;;;;;13.27;11.70;;;;;;;25.70;69.70;94592.72;5049903;28;20226;-83
2022/07/28 07:29:46;;;;;;;12.95;11.65;;;;;;;24.61;69.32;94440.06;5050090;28;20200;-82
2022/07/28 07:32:13;;;;;;;13.45;12.02;;;;;;;25.44;69.66;94578.34;5050659;28;20206;-82
2022/07/28 07:34:40;;;;;;;13.43;12.10;;;;;;;25.66;69.89;94598.66;5050715;28;20266;-82
2022/07/28 07:37:12;;;;;;;14.55;11.05;;;;;;;25.67;70.50;94601.03;5049319;28;20183;-85
2022/07/28 07:39:40;;;;;;;13.45;12.23;;;;;;;25.65;70.17;94589.22;5052011;28;20680;-83
2022/07/28 07:42:08;;;;;;;13.60;11.55;;;;;;;25.13;69.76;94508.91;5050823;28;20667;-83
2022/07/28 07:44:37;;;;;;;12.15;10.95;;;;;;;25.45;69.37;94558.97;5049707;28;20195;-83
2022/07/28 07:47:04;;;;;;;13.38;11.55;;;;;;;25.83;69.02;94624.94;5050670;28;20209;-82
2022/07/28 07:49:31;;;;;;;11.60;10.50;;;;;;;25.55;69.13;94579.31;5048914;28;20191;-83
2022/07/28 07:51:58;;;;;;;13.20;10.85;;;;;;;25.96;69.57;94632.50;5049677;28;20302;-80
2022/07/28 07:54:25;;;;;;;11.52;10.30;;;;;;;26.02;69.91;94627.13;5049123;28;20230;-82
2022/07/28 07:56:53;;;;;;;14.82;11.88;;;;;;;26.01;69.81;94630.78;5049138;28;20187;-82
2022/07/28 07:59:20;;;;;;;14.48;10.93;;;;;;;26.05;69.77;94630.31;5049891;28;20206;-81
2022/07/28 08:01:52;;;;;;;12.88;11.63;;;;;;;25.72;69.99;94577.53;5051863;28;20195;-81
2022/07/28 08:04:19;;;;;;;11.57;10.52;;;;;;;25.92;68.94;94618.28;5051129;28;20701;-82
2022/07/28 08:06:46;;;;;;;12.80;11.30;;;;;;;26.16;69.12;94634.69;5049354;28;20195;-84
2022/07/28 08:09:13;;;;;;;11.85;10.65;;;;;;;26.25;69.11;94638.50;5048537;28;20590;-84
2022/07/28 08:11:40;;;;;;;11.85;10.48;;;;;;;26.28;68.58;94641.44;5049185;28;20193;-80
2022/07/28 08:14:08;;;;;;;13.75;10.98;;;;;;;26.28;68.68;94633.59;5049383;28;20215;-84
2022/07/28 08:16:36;;;;;;;12.30;11.00;;;;;;;26.34;68.01;94633.66;5050748;28;20195;-85
2022/07/28 08:19:03;;;;;;;11.52;10.43;;;;;;;26.15;67.72;94615.53;5049805;28;20226;-83
2022/07/28 08:21:30;;;;;;;12.25;11.05;;;;;;;26.36;68.02;94637.66;5048778;28;20274;-84
2022/07/28 08:23:57;;;;;;;12.50;11.35;;;;;;;26.07;67.74;94588.91;5048921;28;20203;-84
2022/07/28 08:26:25;;;;;;;11.30;10.15;;;;;;;24.75;66.04;94392.50;5050092;28;20203;-84
2022/07/28 08:28:52;;;;;;;10.40;9.50;;;;;;;25.99;66.25;94582.22;5049128;28;20183;-85
2022/07/28 08:31:20;;;;;;;12.38;11.07;;;;;;;26.22;66.31;94625.88;5050013;28;20191;-85
2022/07/28 08:33:48;;;;;;;12.02;10.10;;;;;;;26.14;66.44;94624.44;5054176;28;20197;-85
2022/07/28 08:36:14;;;;;;;12.00;10.80;;;;;;;25.93;66.05;94583.97;5054594;28;20241;-84
2022/07/28 08:38:41;;;;;;;12.00;10.75;;;;;;;26.38;66.32;94663.63;5053015;28;20195;-84
2022/07/28 08:41:13;;;;;;;13.50;10.55;;;;;;;26.42;66.40;94660.28;5054100;28;20187;-83
2022/07/28 08:43:42;;;;;;;11.48;10.32;;;;;;;26.05;66.59;94611.97;5057671;28;20187;-85
2022/07/28 08:46:09;;;;;;;11.82;10.73;;;;;;;26.44;66.48;94660.09;5054746;28;20222;-85
2022/07/28 08:48:38;;;;;;;11.40;10.02;;;;;;;26.44;66.12;94655.66;5054454;28;20195;-84
2022/07/28 08:51:09;;;;;;;11.80;10.35;;;;;;;26.43;66.23;94669.00;5067854;28;20191;-83
2022/07/28 08:53:38;;;;;;;13.40;10.88;;;;;;;26.17;66.22;94628.44;5065208;28;20251;-82
2022/07/28 08:56:06;;;;;;;12.60;10.35;;;;;;;26.54;66.63;94676.00;5066512;28;20283;-83
2022/07/28 08:58:35;;;;;;;14.35;10.73;;;;;;;26.46;66.70;94648.34;5060069;28;20195;-82
2022/07/28 09:01:02;;;;;;;13.40;11.95;;;;;;;26.51;65.88;94672.03;5059110;28;20186;-83
2022/07/28 09:03:29;;;;;;;13.85;10.65;;;;;;;26.28;65.80;94644.06;5062646;28;20211;-81
2022/07/28 09:05:58;;;;;;;12.20;11.00;;;;;;;26.20;65.35;94633.97;5069722;28;20197;-84
2022/07/28 09:08:25;;;;;;;11.27;10.27;;;;;;;26.47;65.83;94675.38;5053064;28;20203;-84
2022/07/28 09:10:53;;;;;;;11.50;10.40;;;;;;;26.48;65.35;94669.09;5070876;28;20219;-84
2022/07/28 09:13:20;;;;;;;12.20;10.98;;;;;;;26.51;65.79;94671.22;5063590;28;20278;-81
2022/07/28 09:15:47;;;;;;;11.13;10.02;;;;;;;26.20;66.34;94626.09;5059272;28;20203;-78
2022/07/28 09:18:15;;;;;;;11.90;10.80;;;;;;;26.59;66.08;94664.78;5058445;28;20227;-81
2022/07/28 09:20:43;;;;;;;15.15;11.15;;;;;;;25.95;65.88;94563.59;5063058;28;20203;-80
2022/07/28 09:23:12;;;;;;;12.50;11.18;;;;;;;26.67;65.24;94670.44;5070806;28;20243;-83
2022/07/28 09:25:41;;;;;;;13.00;10.80;;;;;;;26.74;65.13;94667.69;5071474;28;20225;-82
2022/07/28 09:28:10;;;;;;;12.70;11.40;;;;;;;26.75;64.81;94654.31;5062502;28;20221;-82
2022/07/28 09:30:40;;;;;;;12.45;11.10;;;;;;;26.62;64.74;94625.78;5065032;28;20197;-81
2022/07/28 09:33:19;;;;;;;13.05;10.35;;;;;;;26.85;64.26;94651.03;5061206;28;20191;-81
2022/07/28 09:35:49;;;;;;;12.75;11.30;;;;;;;26.53;64.39;94603.59;5068559;28;20226;-83
2022/07/28 09:38:18;;;;;;;12.40;11.13;;;;;;;26.94;64.31;94670.63;5074954;28;20175;-82
2022/07/28 09:40:58;;;;;;;11.13;10.02;;;;;;;26.69;64.32;94618.53;5075236;28;20209;-83
2022/07/28 09:43:33;;;;;;;12.65;11.02;;;;;;;27.01;64.54;94654.69;5071872;28;20358;-82
2022/07/28 09:46:04;;;;;;;13.55;11.60;;;;;;;27.05;64.38;94657.63;5074497;28;20178;-82
2022/07/28 09:48:31;;;;;;;14.43;12.02;;;;;;;27.14;64.61;94659.63;5074622;28;20187;-82
2022/07/28 09:51:10;;;;;;;13.13;11.82;;;;;;;27.18;64.32;94667.81;5073997;28;20187;-82
2022/07/28 09:53:39;;;;;;;14.35;12.95;;;;;;;27.21;64.26;94675.22;5073292;28;20218;-84
2022/07/28 09:56:07;;;;;;;14.90;13.25;;;;;;;27.21;64.70;94670.75;5075080;28;20257;-83
2022/07/28 09:58:34;;;;;;;17.58;13.23;;;;;;;27.33;64.28;94672.47;5074418;28;20187;-82
2022/07/28 10:01:05;;;;;;;16.45;14.45;;;;;;;27.35;64.36;94663.31;5069897;28;20198;-84
2022/07/28 10:03:33;;;;;;;24.35;15.23;;;;;;;27.30;64.20;94658.00;5063527;28;20191;-82
2022/07/28 10:06:03;;;;;;;18.13;13.05;;;;;;;27.44;64.64;94668.94;5051415;28;20203;-82
2022/07/28 10:08:44;;;;;;;15.23;13.63;;;;;;;27.51;63.81;94661.69;5051055;28;20202;-82
2022/07/28 10:11:12;;;;;;;18.77;15.82;;;;;;;27.39;63.76;94647.88;5053971;28;20713;-82
2022/07/28 10:13:53;;;;;;;15.63;13.98;;;;;;;27.59;63.51;94663.09;5050659;28;20578;-83
2022/07/28 10:16:21;;;;;;;14.90;13.40;;;;;;;27.15;63.74;94577.19;5051227;28;20222;-83
2022/07/28 10:18:48;;;;;;;19.05;12.80;;;;;;;27.26;63.68;94583.38;5050831;28;20319;-83
2022/07/28 10:21:17;;;;;;;14.98;13.48;;;;;;;27.81;64.22;94658.66;5051477;28;20191;-82
2022/07/28 10:23:48;;;;;;;13.57;12.23;;;;;;;27.87;64.09;94665.56;5050991;28;20226;-82
2022/07/28 10:26:17;;;;;;;19.38;13.30;;;;;;;27.91;62.44;94657.97;5050382;28;20229;-82
2022/07/28 10:28:49;;;;;;;16.83;11.55;;;;;;;27.93;62.13;94654.03;5050365;28;20201;-81
2022/07/28 10:31:27;;;;;;;12.23;10.73;;;;;;;27.65;60.99;94615.63;5050767;28;20585;-83
2022/07/28 10:33:58;;;;;;;12.57;11.15;;;;;;;27.99;60.54;94658.34;5048447;28;20206;-81
2022/07/28 10:36:26;;;;;;;11.10;10.00;;;;;;;28.04;59.87;94654.16;5050559;28;20218;-82
2022/07/28 10:39:02;;;;;;;10.82;9.70;;;;;;;28.10;59.79;94658.44;5050364;28;20577;-83
2022/07/28 10:41:37;;;;;;;11.27;10.27;;;;;;;28.08;59.69;94656.06;5050912;28;20201;-83
2022/07/28 10:44:05;;;;;;;12.15;9.80;;;;;;;28.12;58.75;94641.38;5050358;28;20218;-82
2022/07/28 10:46:32;;;;;;;9.68;8.65;;;;;;;28.05;58.65;94626.81;5050472;28;20207;-82
2022/07/28 10:49:01;;;;;;;10.75;9.68;;;;;;;28.23;57.86;94645.66;5050059;28;20274;-80
2022/07/28 10:51:28;;;;;;;20.02;12.65;;;;;;;28.19;58.20;94631.44;5050742;28;20203;-83
2022/07/28 10:54:06;;;;;;;14.85;12.57;;;;;;;28.01;58.33;94616.00;5049877;28;20199;-82
2022/07/28 10:56:45;;;;;;;15.20;10.82;;;;;;;28.25;58.95;94633.06;5050779;28;20780;-84
2022/07/28 10:59:37;;;;;;;12.65;11.40;;;;;;;28.20;59.24;94606.72;5049660;28;20199;-79
2022/07/28 11:02:04;;;;;;;12.10;10.90;;;;;;;28.31;59.12;94633.13;5050333;28;20199;-82
2022/07/28 11:04:54;;;;;;;16.27;10.52;;;;;;;28.08;58.36;94574.53;5053195;28;20209;-82
2022/07/28 11:07:21;;;;;;;11.93;9.63;;;;;;;28.36;57.48;94615.56;5050006;28;20234;-83
2022/07/28 11:09:50;;;;;;;11.15;10.15;;;;;;;27.73;57.51;94525.84;5050448;28;20257;-85
2022/07/28 11:12:47;;;;;;;11.57;9.35;;;;;;;28.43;56.07;94620.63;5050239;28;20554;-84
2022/07/28 11:15:28;;;;;;;10.30;9.30;;;;;;;28.06;56.53;94545.06;5048371;28;20210;-84
2022/07/28 11:18:05;;;;;;;10.10;9.23;;;;;;;27.78;54.77;94490.16;5050740;28;20559;-83
2022/07/28 11:21:07;;;;;;;10.07;9.15;;;;;;;28.56;54.54;94599.16;5049561;28;20219;-82
2022/07/28 11:23:55;;;;;;;10.65;9.65;;;;;;;28.47;54.20;94563.84;5050159;28;20226;-84
2022/07/28 11:26:40;;;;;;;10.38;9.45;;;;;;;28.37;53.01;94529.53;5049604;28;20201;-83
2022/07/28 11:29:17;;;;;;;10.45;9.32;;;;;;;28.77;52.26;94579.03;5048698;28;20198;-82
2022/07/28 11:32:03;;;;;;;10.20;9.30;;;;;;;28.62;52.08;94555.22;5047679;28;20571;-88
2022/07/28 11:35:17;;;;;;;9.27;8.48;;;;;;;28.85;50.85;94570.66;5046956;28;20277;-80
2022/07/28 11:38:14;;;;;;;9.90;8.95;;;;;;;28.73;50.74;94538.47;5047049;28;20190;-79